Nearby METAR Reports

 

KAVP - Avoca/Wilkes B., Pennsylvania, USA
Distance from station: N 16mi, 25km
Updated: 01/21/2020 9:54am
Clear
Clear
 Wind from NNW
Wind: NNW 7 mph , 11 km/h
Temperature: 23°F , -5°C
Wind Chill: 15°F , -9°C
Dew Point: 9°F , -13°C
Humidity: 54%
Barometer: 30.46 inHg , 1031.5 hPa
Clouds: Clear
Visibility: 10 miles , 16 km
2020/01/21 14:54 KAVP 211454Z 34006KT 10SM CLR M05/M13 A3046 RMK AO2 SLP329 T10501128 51016
KMPO - Mt. Pocono, Pennsylvania, USA
Distance from station: E 20mi, 33km
Updated: 01/21/2020 9:53am
Clear
Clear
 Wind from WNW
Wind: WNW 14 mph , 22 km/h, Gust: 22 mph , 35 km/h
Temperature: 16°F , -9°C
Wind Chill: 2°F , -17°C
Dew Point: 7°F , -14°C
Humidity: 67%
Barometer: 30.34 inHg , 1027.4 hPa
Clouds: Clear
Visibility: 10 miles , 16 km
2020/01/21 14:53 KMPO 211453Z AUTO 30012G19KT 10SM CLR M09/M14 A3034 RMK AO2 SLP313 T10891144
 
KABE - Allentown, Pennsylvania, USA
Distance from station: SSE 36mi, 58km
Updated: 01/21/2020 9:51am
Clear
Clear
 Wind from NW
Wind: NW 9 mph , 15 km/h
Temperature: 25°F , -4°C
Wind Chill: 16°F , -9°C
Dew Point: 10°F , -12°C
Humidity: 54%
Barometer: 30.49 inHg , 1032.5 hPa
Clouds: Clear
Visibility: 10 miles , 16 km
2020/01/21 14:51 KABE 211451Z 31008KT 10SM CLR M04/M12 A3049 RMK AO2 SLP329 T10391117 51015
KXLL - Allentown Queen, Pennsylvania, USA
Distance from station: SSE 41mi, 65km
Updated: 01/21/2020 9:55am
Clear
Clear
 Wind from NW
Wind: NW 13 mph , 20 km/h
Temperature: 27°F , -3°C
Wind Chill: 16°F , -9°C
Dew Point: 14°F , -10°C
Humidity: 59%
Barometer: 30.51 inHg , 1033.2 hPa
Clouds: Clear
Visibility: 10 miles , 16 km
2020/01/21 14:55 KXLL 211455Z AUTO 32011KT 10SM CLR M03/M10 A3051 RMK AO2